HOURLY OBS INDEX

077

Mallee - south

HOPETOUN AIRPORT

Site: 077010
Alt: 77.3m
87km NNE of DIMBOOLA


  Time     Wind        Temp  DP   Baro     Rain since   Rain past  Vis(m), Cloud(base in m), Weather
  local        km/h                         9am  last   hr   10m    
Wed 07:00  ENE 15/ 20  21.3  5.2  1008.1    0.0   0.0   0.0   0.0   ----- 
Wed 07:30  ENE 13/ 15  22.3  5.3  1008.3    0.0   0.0   0.0   0.0   ----- 
Wed 08:00   NE 20/ 24  23.9  6.7  1008.3    0.0   0.0   0.0   0.0   ----- 
Wed 08:30   NE 22/ 28  25.9  9.3  1008.3    0.0   0.0   0.0   0.0   ----- 
Wed 09:00    N 22/ 32  27.8 10.5  1008.5    0.0   0.0   0.0   0.0   ----- 
Wed 09:30    N 22/ 33  28.5 11.6  1008.1    0.0   0.0   0.0   0.0   ----- 
Wed 10:00    N 24/ 35  31.1 12.5  1007.5    0.0   0.0   0.0   0.0   ----- 
Wed 10:30    N 28/ 37  31.8 12.1  1006.9    0.0   0.0   0.0   0.0   ----- 
Wed 11:00    N 24/ 33  32.4 11.6  1006.6    0.0   0.0   0.0   0.0   ----- 
Wed 11:30  NNE 26/ 37  34.4 10.3  1006.0    0.0   0.0   0.0   0.0   ----- 
Wed 12:00  NNE 24/ 33  34.1 10.7  1005.5    0.0   0.0   0.0   0.0   ----- 

SWAN HILL AERODROME

Site: 077094
Alt: 71.0m
4km SSW of SWAN HILL


  Time     Wind        Temp  DP   Baro     Rain since   Rain past  Vis(m), Cloud(base in m), Weather
  local        km/h                         9am  last   hr   10m    
Wed 07:00   NE 11/ 15  22.3 13.4  1009.0    0.0   0.0   0.0   0.0   10000 
Wed 07:30   NE 17/ 20  22.9 13.9  1008.8    0.0   0.0   0.0   0.0   10000 
Wed 08:00   NE 22/ 28  24.2 14.0  1008.7    0.0   0.0   0.0   0.0   10000 
Wed 08:30   NE 28/ 37  25.5 14.0  1008.9    0.0   0.0   0.0   0.0   10000 
Wed 09:00   NE 26/ 39  26.8 14.2  1009.1    0.0   0.0   0.0   0.0   10000 
Wed 09:30   NE 26/ 35  27.7 14.0  1009.0    0.0   0.0   0.0   0.0   10000 
Wed 10:00  NNE 22/ 32  29.3 13.5  1008.7    0.0   0.0   0.0   0.0   10000 
Wed 10:30  NNE 26/ 37  29.0 13.2  1008.1    0.0   0.0   0.0   0.0   10000 
Wed 11:00  NNE 24/ 37  30.3 14.4  1007.7    0.0   0.0   0.0   0.0   10000 
Wed 11:30  ENE 24/ 37  30.3 13.1  1007.3    0.0   0.0   0.0   0.0   10000 
Wed 12:00   NE 26/ 37  31.3 12.2  1006.7    0.0   0.0   0.0   0.0   10000